Tiempo atmosférico en la estación meteorológica de Barbadillo, Salamanca (817 m.)

Fecha
DESCASC
Temp. máxima en grados centígrados (hora)
DESCASC
Temp. mínima en grados centígrados (hora)
DESCASC
Temp. media en grados centígrados
DESCASC
Racha de viento máxima en m/sg (hora)
DESCASC
Velocidad máxima media en intervalos de 10 minutos(hora)
DESCASC
Precipitaciones diarias en mm
DESCASC
Precipitaciones de 00:00 a 06:00 en mm
DESCASC
Precipitaciones de 06:00 a 12:00 en mm
DESCASC
Precipitaciones de 12:00 a 18:00 en mm
DESCASC
Precipitaciones de 18:00 a 24:00 en mm
DESCASC
17-08-2017 34.1 (17:00) 13.2 (06:20) 23.6 10 (18:00) 4.17 (17:00) 0 0 0 0 0
16-08-2017 31.6 (19:00) 12 (08:00) 21.8 6.11 (15:20) 3.33 (20:30) 0 0 0 0 0
15-08-2017 30.2 (18:20) 12.9 (00:00) 21.6 12.5 (18:50) 6.11 (16:40) 0 0 0 0 0
14-08-2017 34.8 (16:30) 13.2 (07:50) 24 11.94 (17:50) 6.39 (15:10) 0 0 0 0 0
13-08-2017 33.4 (17:50) 9.3 (00:00) 21.4 7.22 (17:40) 3.89 (10:00) 0 0 0 0 0
12-08-2017 30.6 (17:40) 8 (00:00) 19.3 8.61 (13:00) 5.28 (12:50) 0 0 0 0 0
11-08-2017 26.8 (18:10) 10.1 (00:00) 18.4 8.33 (02:50) 5.28 (04:00) 0 0 0 0 0
10-08-2017 24.2 (18:20) 6.5 (00:00) 15.4 14.44 (11:50) 8.33 (12:00) 0 0 0 0 0
09-08-2017 22.8 (17:50) 7.4 (00:00) 15.1 11.67 (19:50) 5.83 (23:59) 0 0 0 0 0
08-08-2017 25.4 (19:50) 8.2 (00:00) 16.8 10 (10:50) 4.17 (10:50) 0 0 0 0 0
07-08-2017 31.1 (17:00) 12.2 (00:00) 21.7 13.61 (16:50) 6.94 (16:30) 0 0 0 0 0
06-08-2017 30.3 (18:50) 14 (00:00) 22.1 10.28 (10:20) 6.11 (10:20) 0 0 0 0 0
05-08-2017 34.3 (17:10) 14.2 (00:00) 24.2 11.94 (23:50) 5.83 (17:40) 0 0 0 0 0
04-08-2017 35.4 (17:50) 16.1 (00:00) 25.8 8.89 (19:00) 5.56 (19:00) 0 0 0 0 0
03-08-2017 32 (18:10) 12.9 (00:00) 22.4 11.39 (15:50) 6.39 (17:30) 0 0 0 0 0
02-08-2017 32.2 (18:10) 9.5 (00:00) 20.9 8.33 (16:20) 4.72 (17:20) 0 0 0 0 0
01-08-2017 28.6 (18:20) 12.3 (00:00) 20.5 8.89 (16:10) 4.17 (15:00) 0 0 0 0 0
31-07-2017 27.5 (17:10) 10.9 (00:00) 19.2 9.72 (15:20) 6.39 (14:30) 0 0 0 0 0
30-07-2017 31.7 (16:30) 14.4 (00:00) 23.1 12.5 (17:00) 7.22 (16:40) 0 0 0 0 0
29-07-2017 32.8 (17:10) 14.3 (00:00) 23.5 10.28 (17:50) 5.83 (18:00) 0 0 0 0 0
28-07-2017 33.1 (17:50) 13.3 (00:00) 23.2 8.89 (17:40) 5.56 (16:40) 0 0 0 0 0
27-07-2017 34 (17:30) 12.8 (00:00) 23.4 10.28 (17:10) 5.56 (14:50) 0 0 0 0 0
26-07-2017 32.4 (18:40) 14 (00:00) 23.2 7.5 (01:50) 5.28 (02:00) 0 0 0 0 0
25-07-2017 27.6 (18:40) 13 (00:00) 20.3 8.89 (12:40) 5.83 (09:20) 0 0 0 0 0
24-07-2017 29.3 (18:40) 11.5 (00:00) 20.4 7.5 (18:50) 4.17 (11:00) 0 0 0 0 0
23-07-2017 30.5 (18:50) 9.4 (00:00) 19.9 9.17 (19:40) 5.28 (20:20) 0 0 0 0 0
22-07-2017 28.3 (18:30) 9.7 (00:00) 19 9.17 (15:50) 5 (17:00) 0 0 0 0 0

Gráficas

Temp. máximas Temp. mínimas Temp. medias Precipitaciones Rachas de viento máximas Velocidades máximas media en intervalos de 10 minutos

Datos horarios

Fecha y hora oficial Temperatura (ºC) Velocidad del viento (km/h) Dirección del viento Racha (km/h) Dirección de racha Precipitación (mm) Presión (hPa) Tendencia (hPa) Humedad (%)
2017-08-20 23:00:00 26.4 16 Este 25 Este 0 -- -- 24
2017-08-20 22:00:00 27.3 9 Nordeste 18 Nordeste 0 -- -- 22
2017-08-20 21:00:00 30.6 9 Nordeste 26 Nordeste 0 -- -- 19
2017-08-20 20:00:00 32.6 14 Nordeste 32 Nordeste 0 -- -- 16
2017-08-20 19:00:00 33.3 11 Nordeste 31 Norte 0 -- -- 17
2017-08-20 18:00:00 33.6 11 Nordeste 30 Este 0 -- -- 18
2017-08-20 17:00:00 33.1 14 Nordeste 32 Este 0 -- -- 19
2017-08-20 16:00:00 32.3 18 Nordeste 32 Este 0 -- -- 19
2017-08-20 15:00:00 31 23 Este 32 Este 0 -- -- 20
2017-08-20 14:00:00 29.4 23 Este 36 Este 0 -- -- 25
2017-08-20 13:00:00 27.6 23 Este 36 Nordeste 0 -- -- 26
2017-08-20 12:00:00 24.9 24 Este 34 Nordeste 0 -- -- 34
2017-08-20 11:00:00 21.5 15 Este 35 Nordeste 0 -- -- 48
2017-08-20 10:00:00 18.4 16 Este 22 Nordeste 0 -- -- 55
2017-08-20 09:00:00 15.9 12 Este 21 Este 0 -- -- 63
2017-08-20 08:00:00 14 5 Este 15 Nordeste 0 -- -- 70
2017-08-20 07:00:00 14.5 7 Este 18 Nordeste 0 -- -- 68
2017-08-20 06:00:00 15.4 9 Nordeste 21 Nordeste 0 -- -- 64
2017-08-20 05:00:00 16.6 11 Nordeste 25 Nordeste 0 -- -- 62
2017-08-20 04:00:00 18 10 Nordeste 22 Este 0 -- -- 55
2017-08-20 03:00:00 19.3 14 Nordeste 25 Nordeste 0 -- -- 50
2017-08-20 02:00:00 20.4 17 Este 29 Este 0 -- -- 45
2017-08-20 01:00:00 22 19 Este 28 Este 0 -- -- 41
2017-08-20 00:00:00 22.7 10 Nordeste 16 Nordeste 0 -- -- 37
2017-08-19 23:00:00 23.7 6 Nordeste 13 Nordeste 0 -- -- 37
2017-08-19 22:00:00 26.1 8 Norte 15 Norte 0 -- -- 34
2017-08-19 21:00:00 28.7 8 Norte 21 Noroeste 0 -- -- 31
2017-08-19 20:00:00 30.4 8 Norte 18 Norte 0 -- -- 29
2017-08-19 19:00:00 31.5 5 Nordeste 21 Norte 0 -- -- 28
2017-08-19 18:00:00 31.3 8 Nordeste 22 Norte 0 -- -- 28
2017-08-19 17:00:00 30.3 11 Norte 25 Este 0 -- -- 32
2017-08-19 16:00:00 29.8 12 Norte 25 Norte 0 -- -- 34
2017-08-19 15:00:00 29.2 13 Este 38 Este 0 -- -- 36
2017-08-19 14:00:00 27.3 12 Nordeste 36 Este 0 -- -- 41
2017-08-19 13:00:00 25.9 16 Nordeste 30 Este 0 -- -- 44
2017-08-19 12:00:00 23.5 13 Nordeste 26 Norte 0 -- -- 51
2017-08-19 11:00:00 21.4 12 Nordeste 28 Norte 0 -- -- 57
2017-08-19 10:00:00 20.2 13 Nordeste 29 Nordeste 0 -- -- 62
2017-08-19 09:00:00 17.5 13 Nordeste 19 Nordeste 0 -- -- 70
2017-08-19 08:00:00 15.5 5 Nordeste 15 Nordeste 0 -- -- 79
2017-08-19 07:00:00 16.2 13 Nordeste 19 Nordeste 0 -- -- 76
2017-08-19 06:00:00 16.6 6 Nordeste 14 Nordeste 0 -- -- 75
2017-08-19 05:00:00 17.6 4 Nordeste 15 Este 0 -- -- 71
2017-08-19 04:00:00 18.7 10 Nordeste 22 Nordeste 0 -- -- 67
2017-08-19 03:00:00 20.1 9 Nordeste 17 Este 0 -- -- 63
2017-08-19 02:00:00 21.3 9 Nordeste 18 Norte 0 -- -- 57
2017-08-19 01:00:00 22 5 Noroeste 11 Noroeste 0 -- -- 45
2017-08-19 00:00:00 23.7 3 Noroeste 9 Noroeste 0 -- -- 40
2017-08-18 23:00:00 25.5 7 Noroeste 21 Noroeste 0 -- -- 36
2017-08-18 22:00:00 27.1 11 Noroeste 21 Noroeste 0 -- -- 34
2017-08-18 21:00:00 29.2 12 Oeste 22 Oeste 0 -- -- 29
2017-08-18 20:00:00 31.1 11 Oeste 27 Noroeste 0 -- -- 25
2017-08-18 19:00:00 31.7 12 Noroeste 31 Oeste 0 -- -- 24
2017-08-18 18:00:00 32.1 13 Noroeste 30 Oeste 0 -- -- 22
2017-08-18 17:00:00 32.8 14 Noroeste 32 Oeste 0 -- -- 23
2017-08-18 16:00:00 32.8 13 Oeste 31 Oeste 0 -- -- 20
2017-08-18 15:00:00 32.1 13 Oeste 27 Oeste 0 -- -- 22
2017-08-18 14:00:00 30.6 11 Oeste 25 Oeste 0 -- -- 27
2017-08-18 13:00:00 28.5 12 Norte 21 Noroeste 0 -- -- 31
2017-08-18 12:00:00 27 12 Oeste 18 Oeste 0 -- -- 34
2017-08-18 11:00:00 24.1 5 Oeste 13 Oeste 0 -- -- 46
2017-08-18 10:00:00 21.1 5 Oeste 19 Oeste 0 -- -- 54
2017-08-18 09:00:00 17.8 4 Oeste 9 Noroeste 0 -- -- 66
2017-08-18 08:00:00 15.7 5 Sudoeste 9 Sur 0 -- -- 69
2017-08-18 07:00:00 15 4 Sur 9 Sur 0 -- -- 70
2017-08-18 06:00:00 15.2 5 Sur 8 Sur 0 -- -- 63
2017-08-18 05:00:00 16.7 5 Sur 8 Sudeste 0 -- -- 60
2017-08-18 04:00:00 17 4 Sur 6 Sur 0 -- -- 54
2017-08-18 03:00:00 18 5 Sur 10 Sur 0 -- -- 50
2017-08-18 02:00:00 18.3 4 Sur 6 Sur 0 -- -- 48
2017-08-18 01:00:00 19.2 6 Sur 9 Sur 0 -- -- 45
2017-08-18 00:00:00 20.8 5 Sur 8 Sur 0 -- -- 41
2017-08-17 23:00:00 24.4 3 Sudeste 10 Oeste 0 -- -- 35
2017-08-17 22:00:00 28.4 5 Noroeste 14 Noroeste 0 -- -- 29
2017-08-17 21:00:00 31.6 8 Noroeste 22 Oeste 0 -- -- 27
2017-08-17 20:00:00 33 10 Noroeste 25 Oeste 0 -- -- 25
2017-08-17 19:00:00 33.8 10 Oeste 23 Oeste 0 -- -- 25
2017-08-17 18:00:00 33.9 12 Sudoeste 36 Sudoeste 0 -- -- 24
2017-08-17 17:00:00 34.1 15 Oeste 24 Oeste 0 -- -- 24
2017-08-17 16:00:00 33.2 13 Sudoeste 23 Oeste 0 -- -- 25
2017-08-17 15:00:00 32.4 13 Sudoeste 22 Sudoeste 0 -- -- 24
2017-08-17 14:00:00 30.7 5 Sudoeste 12 Noroeste 0 -- -- 29
2017-08-17 13:00:00 28.8 6 Nordeste 15 Norte 0 -- -- 33
2017-08-17 12:00:00 26.3 5 Norte 12 Noroeste 0 -- -- 40
2017-08-17 11:00:00 23 4 Noroeste 8 Noroeste 0 -- -- 50
2017-08-17 10:00:00 20.4 3 Norte 11 Oeste 0 -- -- 58
2017-08-17 09:00:00 16.4 2 Sudeste 4 Sur 0 -- -- 66
2017-08-17 08:00:00 13.3 3 Sudoeste 6 Sur 0 -- -- 68
2017-08-17 07:00:00 13.4 4 Sur 8 Sur 0 -- -- 68
2017-08-17 06:00:00 13.4 3 Sudoeste 6 Sur 0 -- -- 62
2017-08-17 05:00:00 14.4 4 Sudeste 9 Sur 0 -- -- 58
2017-08-17 04:00:00 15.1 2 Sur 6 Sur 0 -- -- 55
2017-08-17 03:00:00 15.4 4 Sur 7 Sur 0 -- -- 52
2017-08-17 02:00:00 16.3 5 Sur 9 Sur 0 -- -- 48
2017-08-17 01:00:00 17.5 6 Sur 8 Sur 0 -- -- 45
2017-08-17 00:00:00 18.8 5 Sur 10 Sur 0 -- -- 41
2017-08-16 23:00:00 21.3 4 Sur 8 Noroeste 0 -- -- 38
2017-08-16 22:00:00 24.9 4 Nordeste 13 Oeste 0 -- -- 31
2017-08-16 21:00:00 29.2 6 Noroeste 20 Noroeste 0 -- -- 25
2017-08-16 20:00:00 30.5 11 Noroeste 22 Noroeste 0 -- -- 24
2017-08-16 19:00:00 31.6 11 Oeste 19 Oeste 0 -- -- 23
2017-08-16 18:00:00 31.1 8 Oeste 21 Noroeste 0 -- -- 23
2017-08-16 17:00:00 30.2 10 Noroeste 21 Oeste 0 -- -- 21
2017-08-16 16:00:00 29.6 7 Noroeste 22 Oeste 0 -- -- 23
2017-08-16 15:00:00 28.4 6 Nordeste 18 Noroeste 0 -- -- 25
2017-08-16 14:00:00 26.7 6 Norte 13 Norte 0 -- -- 32
2017-08-16 13:00:00 24.6 7 Noroeste 16 Oeste 0 -- -- 39
2017-08-16 12:00:00 22.9 6 Noroeste 12 Noroeste 0 -- -- 42
2017-08-16 11:00:00 20.4 4 Norte 9 Noroeste 0 -- -- 48
2017-08-16 10:00:00 18.1 5 Noroeste 13 Noroeste 0 -- -- 53
2017-08-16 09:00:00 14.6 3 Sudoeste 6 Sur 0 -- -- 68
2017-08-16 08:00:00 12 5 Sur 6 Sudoeste 0 -- -- 75
2017-08-16 07:00:00 13.4 3 Sur 5 Sur 0 -- -- 69
2017-08-16 06:00:00 14.7 4 Sudoeste 8 Sur 0 -- -- 68
2017-08-16 05:00:00 15.5 5 Sudoeste 9 Sudoeste 0 -- -- 67
2017-08-16 04:00:00 16.5 6 Sudoeste 8 Sudoeste 0 -- -- 64
2017-08-16 03:00:00 16.3 6 Sur 10 Sudeste 0 -- -- 61
2017-08-16 02:00:00 18.4 5 Sur 7 Sur 0 -- -- 55
2017-08-16 01:00:00 20 4 Oeste 11 Oeste 0 -- -- 49
2017-08-16 00:00:00 20.7 7 Oeste 12 Oeste 0 -- -- 45
2017-08-15 23:00:00 21.5 6 Oeste 9 Oeste 0 -- -- 36
2017-08-15 22:00:00 24.4 4 Oeste 14 Noroeste 0 -- -- 29
2017-08-15 21:00:00 26.9 12 Noroeste 28 Oeste 0 -- -- 23
2017-08-15 20:00:00 28.5 18 Noroeste 35 Oeste 0 -- -- 22
2017-08-15 19:00:00 29.3 19 Oeste 45 Oeste 0 -- -- 23
2017-08-15 18:00:00 29.4 18 Oeste 37 Oeste 0 -- -- 24
2017-08-15 17:00:00 29.1 20 Oeste 35 Oeste 0 -- -- 25
2017-08-15 16:00:00 29.5 18 Oeste 34 Oeste 0 -- -- 27
2017-08-15 15:00:00 29.2 16 Oeste 32 Oeste 0 -- -- 28
2017-08-15 14:00:00 29.2 15 Oeste 28 Oeste 0 -- -- 29
2017-08-15 13:00:00 26.9 13 Oeste 26 Oeste 0 -- -- 30
2017-08-15 12:00:00 24.6 12 Oeste 21 Sudoeste 0 -- -- 39
2017-08-15 11:00:00 23.2 12 Oeste 17 Oeste 0 -- -- 44
2017-08-15 10:00:00 20.3 9 Sudoeste 15 Oeste 0 -- -- 55
2017-08-15 09:00:00 16.6 4 Sudoeste 11 Sudoeste 0 -- -- 69
2017-08-15 08:00:00 13.1 7 Sur 10 Sur 0 -- -- 74
2017-08-15 07:00:00 13.3 8 Sur 8 Sur 0 -- -- 69
2017-08-15 06:00:00 14.6 0 Calma 5 Sudeste 0 -- -- 64
2017-08-15 05:00:00 16.1 2 Sur 6 Sur 0 -- -- 59
2017-08-15 04:00:00 18 6 Sur 8 Sur 0 -- -- 54
2017-08-15 03:00:00 19 5 Sur 8 Sudoeste 0 -- -- 52
2017-08-15 02:00:00 20 6 Sudoeste 10 Sur 0 -- -- 47
2017-08-15 01:00:00 20.1 3 Sur 9 Sudoeste 0 -- -- 44
2017-08-15 00:00:00 21.6 5 Sur 6 Sudoeste 0 -- -- 39
2017-08-14 23:00:00 24 3 Oeste 10 Oeste 0 -- -- 36
2017-08-14 22:00:00 26.6 7 Sudoeste 15 Oeste 0 -- -- 31
2017-08-14 21:00:00 29.1 9 Sudoeste 23 Sudoeste 0 -- -- 27
2017-08-14 20:00:00 31.2 13 Sudoeste 32 Sudoeste 0 -- -- 24
2017-08-14 19:00:00 32.9 14 Sudoeste 34 Sudoeste 0 -- -- 23
2017-08-14 18:00:00 33.3 14 Sudoeste 43 Sudoeste 0 -- -- 22
2017-08-14 17:00:00 34.1 18 Sudoeste 34 Sur 0 -- -- 21
2017-08-14 16:00:00 33.5 20 Sudoeste 35 Sur 0 -- -- 21
2017-08-14 15:00:00 32.9 15 Sudoeste 36 Sur 0 -- -- 21
2017-08-14 14:00:00 33 13 Sudoeste 39 Sudoeste 0 -- -- 21
2017-08-14 13:00:00 32.8 13 Sudoeste 24 Sudoeste 0 -- -- 21
2017-08-14 12:00:00 30.9 5 Sur 10 Sudoeste 0 -- -- 23
2017-08-14 11:00:00 27 3 Noroeste 5 Noroeste 0 -- -- 31
2017-08-14 10:00:00 21.1 2 Noroeste 4 Nordeste 0 -- -- 47
2017-08-14 09:00:00 14.9 0 Calma 5 Sudeste 0 -- -- 60
2017-08-14 08:00:00 13.2 4 Sur 7 Sur 0 -- -- 61
2017-08-14 07:00:00 14 2 Sur 6 Sur 0 -- -- 58
2017-08-14 06:00:00 14.8 4 Sur 7 Sur 0 -- -- 55
2017-08-14 05:00:00 15.2 4 Sur 7 Sur 0 -- -- 51
2017-08-14 04:00:00 15.2 5 Sur 8 Sur 0 -- -- 48
2017-08-14 03:00:00 17 4 Sur 7 Sur 0 -- -- 44
2017-08-14 02:00:00 18.6 3 Sur 8 Sudeste 0 -- -- 40
2017-08-14 01:00:00 19.4 7 Sur 9 Sur 0 -- -- 35
2017-08-14 00:00:00 21.8 6 Sur 9 Sudeste 0 -- -- 31
2017-08-13 23:00:00 24.6 5 Sudoeste 21 Sudoeste 0 -- -- 27
2017-08-13 22:00:00 25.7 4 Sudeste 12 Este 0 -- -- 27
2017-08-13 21:00:00 30.4 8 Este 18 Oeste 0 -- -- 21
2017-08-13 20:00:00 32.6 8 Oeste 19 Oeste 0 -- -- 17
2017-08-13 19:00:00 32.8 5 Noroeste 21 Oeste 0 -- -- 18
2017-08-13 18:00:00 33 8 Norte 26 Sudoeste 0 -- -- 18
2017-08-13 17:00:00 32.8 9 Oeste 25 Sudoeste 0 -- -- 18
2017-08-13 16:00:00 32.7 11 Oeste 22 Oeste 0 -- -- 18
2017-08-13 15:00:00 31.9 8 Noroeste 15 Oeste 0 -- -- 19
2017-08-13 14:00:00 30.6 5 Norte 17 Este 0 -- -- 21
2017-08-13 13:00:00 28.6 9 Nordeste 21 Nordeste 0 -- -- 25
2017-08-13 12:00:00 26.2 9 Este 18 Este 0 -- -- 29
2017-08-13 11:00:00 22.5 13 Este 22 Nordeste 0 -- -- 35
2017-08-13 10:00:00 19.5 14 Este 22 Este 0 -- -- 44
2017-08-13 09:00:00 14.4 3 Este 8 Nordeste 0 -- -- 55
2017-08-13 08:00:00 9.3 4 Sur 9 Sudeste 0 -- -- 58
2017-08-13 07:00:00 9.7 3 Sur 8 Noroeste 0 -- -- 59
2017-08-13 06:00:00 10.8 4 Sur 12 Noroeste 0 -- -- 55
2017-08-13 05:00:00 11.6 3 Sur 6 Sur 0 -- -- 50
2017-08-13 04:00:00 12.4 3 Sur 7 Sur 0 -- -- 48
2017-08-13 03:00:00 13.4 4 Sudoeste 6 Sudoeste 0 -- -- 47
2017-08-13 02:00:00 14.3 3 Sudoeste 8 Sur 0 -- -- 44
2017-08-13 01:00:00 15.4 4 Sur 6 Sur 0 -- -- 39
2017-08-13 00:00:00 17.4 4 Sur 8 Sur 0 -- -- 35
2017-08-12 23:00:00 20.2 4 Sur 8 Sur 0 -- -- 33
2017-08-12 22:00:00 23.6 3 Nordeste 9 Este 0 -- -- 26
2017-08-12 21:00:00 27.3 9 Este 19 Nordeste 0 -- -- 22
2017-08-12 20:00:00 29.9 13 Este 24 Este 0 -- -- 20
2017-08-12 19:00:00 30.5 11 Este 21 Nordeste 0 -- -- 19
2017-08-12 18:00:00 30.3 9 Norte 28 Este 0 -- -- 19
2017-08-12 17:00:00 30.3 9 Este 24 Este 0 -- -- 19
2017-08-12 16:00:00 29.7 8 Norte 25 Nordeste 0 -- -- 17
2017-08-12 15:00:00 29 9 Nordeste 25 Este 0 -- -- 19
2017-08-12 14:00:00 28.2 13 Este 29 Nordeste 0 -- -- 21
2017-08-12 13:00:00 27 18 Este 31 Nordeste 0 -- -- 24
2017-08-12 12:00:00 24.9 17 Este 30 Nordeste 0 -- -- 28
2017-08-12 11:00:00 21.5 13 Este 21 Este 0 -- -- 35
2017-08-12 10:00:00 18.3 13 Este 18 Nordeste 0 -- -- 41
2017-08-12 09:00:00 12.7 0 Calma 4 Oeste 0 -- -- 54
2017-08-12 08:00:00 8.1 3 Sur 8 Nordeste 0 -- -- 63
2017-08-12 07:00:00 8.9 3 Norte 6 Norte 0 -- -- 60
2017-08-12 06:00:00 8.8 5 Oeste 9 Oeste 0 -- -- 58
2017-08-12 05:00:00 9.1 0 Calma 8 Este 0 -- -- 52
2017-08-12 04:00:00 10.3 0 Calma 6 Noroeste 0 -- -- 47
2017-08-12 03:00:00 11 4 Sudoeste 7 Este 0 -- -- 48
2017-08-12 02:00:00 11.6 2 Nordeste 5 Nordeste 0 -- -- 45
2017-08-12 01:00:00 12.4 5 Sur 9 Sur 0 -- -- 40
2017-08-12 00:00:00 14.2 4 Sur 8 Sur 0 -- -- 38
2017-08-11 23:00:00 17.4 0 Calma 7 Nordeste 0 -- -- 32
2017-08-11 22:00:00 21.4 4 Nordeste 13 Nordeste 0 -- -- 26
2017-08-11 21:00:00 25.2 6 Nordeste 17 Norte 0 -- -- 21
2017-08-11 20:00:00 26.1 6 Norte 25 Este 0 -- -- 19
2017-08-11 19:00:00 26.6 9 Nordeste 24 Nordeste 0 -- -- 19
2017-08-11 18:00:00 26.7 8 Nordeste 28 Norte 0 -- -- 21
2017-08-11 17:00:00 26.4 10 Norte 27 Este 0 -- -- 22
2017-08-11 16:00:00 25.8 11 Este 24 Este 0 -- -- 22
2017-08-11 15:00:00 24.4 10 Nordeste 28 Este 0 -- -- 24
2017-08-11 14:00:00 23.2 15 Nordeste 30 Este 0 -- -- 23
2017-08-11 13:00:00 22.1 12 Nordeste 27 Este 0 -- -- 30
2017-08-11 12:00:00 20.2 15 Este 26 Este 0 -- -- 37
2017-08-11 11:00:00 17.5 14 Este 23 Este 0 -- -- 44
2017-08-11 10:00:00 14.5 14 Este 30 Este 0 -- -- 51
2017-08-11 09:00:00 12.3 17 Este 26 Este 0 -- -- 57
2017-08-11 08:00:00 10.1 3 Noroeste 23 Nordeste 0 -- -- 69
2017-08-11 07:00:00 10.4 7 Nordeste 24 Este 0 -- -- 68
2017-08-11 06:00:00 10.8 12 Nordeste 21 Nordeste 0 -- -- 67
2017-08-11 05:00:00 11.6 13 Este 26 Este 0 -- -- 63
2017-08-11 04:00:00 12.5 19 Este 30 Este 0 -- -- 60
2017-08-11 03:00:00 13.6 17 Este 30 Nordeste 0 -- -- 56
2017-08-11 02:00:00 14.6 18 Este 26 Este 0 -- -- 50
2017-08-11 01:00:00 15.3 13 Este 26 Este 0 -- -- 46
2017-08-11 00:00:00 15.7 11 Este 16 Este 0 -- -- 45
2017-08-10 23:00:00 17.5 10 Este 17 Este 0 -- -- 40
2017-08-10 22:00:00 19.4 8 Nordeste 18 Este 0 -- -- 35
2017-08-10 21:00:00 22.6 13 Nordeste 25 Nordeste 0 -- -- 30
2017-08-10 20:00:00 23.6 18 Este 31 Este 0 -- -- 29
2017-08-10 19:00:00 23.9 19 Este 29 Nordeste 0 -- -- 30
2017-08-10 18:00:00 24 17 Este 50 Este 0 -- -- 31
2017-08-10 17:00:00 23.5 20 Este 33 Este 0 -- -- 33
2017-08-10 16:00:00 22.2 17 Nordeste 36 Este 0 -- -- 35
2017-08-10 15:00:00 20.9 16 Nordeste 39 Este 0 -- -- 39
2017-08-10 14:00:00 19.7 21 Este 39 Este 0 -- -- 42
2017-08-10 13:00:00 18.6 21 Nordeste 42 Este 0 -- -- 46
2017-08-10 12:00:00 16.7 30 Este 52 Este 0 -- -- 49
2017-08-10 11:00:00 15 26 Este 42 Este 0 -- -- 55
2017-08-10 10:00:00 12.6 23 Este 34 Este 0 -- -- 63
2017-08-10 09:00:00 9.7 13 Este 23 Este 0 -- -- 69
2017-08-10 08:00:00 7.1 10 Este 15 Este 0 -- -- 79
2017-08-10 07:00:00 7.2 5 Este 20 Nordeste 0 -- -- 75
2017-08-10 06:00:00 8.2 13 Nordeste 22 Nordeste 0 -- -- 74
2017-08-10 05:00:00 9.2 14 Este 23 Este 0 -- -- 70
2017-08-10 04:00:00 10.2 15 Nordeste 28 Nordeste 0 -- -- 66
2017-08-10 03:00:00 11.2 17 Este 38 Este 0 -- -- 61
2017-08-10 02:00:00 12.3 18 Nordeste 41 Nordeste 0 -- -- 55
2017-08-10 01:00:00 13.4 22 Nordeste 42 Nordeste 0 -- -- 51
2017-08-10 00:00:00 14.8 21 Nordeste 38 Nordeste 0 -- -- 47
2017-08-09 23:00:00 15.7 16 Nordeste 40 Nordeste 0 -- -- 45
2017-08-09 22:00:00 17.5 15 Norte 28 Nordeste 0 -- -- 39
2017-08-09 21:00:00 19.2 15 Norte 35 Norte 0 -- -- 31
2017-08-09 20:00:00 20.6 19 Nordeste 42 Norte 0 -- -- 30
2017-08-09 19:00:00 21.8 17 Norte 39 Nordeste 0 -- -- 27
2017-08-09 18:00:00 22.2 18 Norte 35 Este 0 -- -- 29
2017-08-09 17:00:00 22.1 17 Norte 33 Norte 0 -- -- 29
2017-08-09 16:00:00 22.1 14 Nordeste 34 Nordeste 0 -- -- 32
2017-08-09 15:00:00 20.9 14 Nordeste 31 Nordeste 0 -- -- 36
2017-08-09 14:00:00 20.5 11 Nordeste 30 Este 0 -- -- 38
2017-08-09 13:00:00 19.3 14 Nordeste 32 Nordeste 0 -- -- 44
2017-08-09 12:00:00 17.3 15 Nordeste 38 Nordeste 0 -- -- 52
2017-08-09 11:00:00 15.7 14 Nordeste 31 Este 0 -- -- 59
2017-08-09 10:00:00 13.6 11 Norte 23 Nordeste 0 -- -- 68
2017-08-09 09:00:00 11.8 10 Nordeste 18 Nordeste 0 -- -- 76
2017-08-09 08:00:00 7.6 3 Sur 6 Sudeste 0 -- -- 74
2017-08-09 07:00:00 8.4 0 Calma 8 Sur 0 -- -- 70
2017-08-09 06:00:00 10 2 Sudeste 13 Noroeste 0 -- -- 65
2017-08-09 05:00:00 11.7 3 Oeste 11 Oeste 0 -- -- 61
2017-08-09 04:00:00 12.8 9 Oeste 13 Oeste 0 -- -- 57
2017-08-09 03:00:00 13.1 4 Sudoeste 12 Oeste 0 -- -- 55
2017-08-09 02:00:00 13.7 8 Oeste 12 Sudoeste 0 -- -- 52
2017-08-09 01:00:00 15.3 4 Oeste 12 Noroeste 0 -- -- 44
2017-08-09 00:00:00 17.3 9 Noroeste 16 Oeste 0 -- -- 39
2017-08-08 23:00:00 19.3 5 Norte 13 Norte 0 -- -- 34
2017-08-08 22:00:00 21.1 6 Norte 18 Oeste 0 -- -- 31
2017-08-08 21:00:00 24.1 3 Norte 14 Oeste 0 -- -- 27
2017-08-08 20:00:00 25 4 Norte 16 Noroeste 0 -- -- 25
2017-08-08 19:00:00 24.9 4 Sur 17 Noroeste 0 -- -- 26
2017-08-08 18:00:00 24.7 5 Nordeste 23 Noroeste 0 -- -- 26
2017-08-08 17:00:00 23.7 10 Norte 22 Noroeste 0 -- -- 28
2017-08-08 16:00:00 23 8 Norte 24 Norte 0 -- -- 31
2017-08-08 15:00:00 22.2 12 Norte 25 Nordeste 0 -- -- 33
2017-08-08 14:00:00 21.1 8 Nordeste 25 Nordeste 0 -- -- 40
2017-08-08 13:00:00 19.8 13 Nordeste 25 Nordeste 0 -- -- 45
2017-08-08 12:00:00 17.4 11 Nordeste 25 Nordeste 0 -- -- 56
2017-08-08 11:00:00 16.6 13 Nordeste 36 Nordeste 0 -- -- 61
2017-08-08 10:00:00 14.4 12 Norte 24 Norte 0 -- -- 65
2017-08-08 09:00:00 12.4 9 Nordeste 17 Nordeste 0 -- -- 74
2017-08-08 08:00:00 8.5 3 Sudeste 7 Sudeste 0 -- -- 83
2017-08-08 07:00:00 8.7 0 Calma 7 Sur 0 -- -- 81
2017-08-08 06:00:00 9.6 0 Calma 5 Sur 0 -- -- 78
2017-08-08 05:00:00 10.3 0 Calma 6 Oeste 0 -- -- 77
2017-08-08 04:00:00 11.7 4 Sur 9 Sur 0 -- -- 72
2017-08-08 03:00:00 13.3 3 Sur 6 Este 0 -- -- 67
2017-08-08 02:00:00 15.4 4 Sudoeste 12 Sudoeste 0 -- -- 60
2017-08-08 01:00:00 17.2 5 Sudoeste 19 Oeste 0 -- -- 53
2017-08-08 00:00:00 18.7 11 Oeste 25 Oeste 0 -- -- 49
2017-08-07 23:00:00 20 12 Oeste 28 Oeste 0 -- -- 37
2017-08-07 22:00:00 22.2 17 Oeste 41 Oeste 0 -- -- 29
2017-08-07 21:00:00 24.6 22 Oeste 37 Oeste 0 -- -- 31
2017-08-07 20:00:00 26 23 Oeste 36 Oeste 0 -- -- 26
2017-08-07 19:00:00 28 22 Oeste 37 Oeste 0 -- -- 19
2017-08-07 18:00:00 29.5 19 Oeste 39 Oeste 0 -- -- 15
2017-08-07 17:00:00 31.1 22 Oeste 49 Oeste 0 -- -- 13
2017-08-07 16:00:00 30 22 Oeste 44 Oeste 0 -- -- 14
2017-08-07 15:00:00 29.9 24 Oeste 38 Sudoeste 0 -- -- 20
2017-08-07 14:00:00 28.1 19 Oeste 34 Oeste 0 -- -- 24
2017-08-07 13:00:00 26.9 23 Oeste 33 Oeste 0 -- -- 36
2017-08-07 12:00:00 24.8 14 Oeste 30 Oeste 0 -- -- 46
2017-08-07 11:00:00 22 14 Oeste 25 Oeste 0 -- -- 54
2017-08-07 10:00:00 19.4 14 Sudoeste 26 Oeste 0 -- -- 60
2017-08-07 09:00:00 15.2 3 Sudeste 6 Este 0 -- -- 71
2017-08-07 08:00:00 12.2 0 Calma 7 Sur 0 -- -- 79
2017-08-07 07:00:00 13.6 2 Sudoeste 7 Este 0 -- -- 75
2017-08-07 06:00:00 12.8 4 Noroeste 8 Nordeste 0 -- -- 76
2017-08-07 05:00:00 14.1 0 Calma 3 Nordeste 0 -- -- 69
2017-08-07 04:00:00 16.1 0 Calma 6 Sur 0 -- -- 65
2017-08-07 03:00:00 17.7 3 Nordeste 6 Este 0 -- -- 61
2017-08-07 02:00:00 18.9 0 Calma 8 Nordeste 0 -- -- 55
2017-08-07 01:00:00 19.7 3 Nordeste 8 Sudeste 0 -- -- 53
2017-08-07 00:00:00 20.7 3 Sudeste 7 Sur 0 -- -- 50
2017-08-06 23:00:00 24.1 2 Noroeste 8 Norte 0 -- -- 43
2017-08-06 22:00:00 26.6 3 Nordeste 9 Norte 0 -- -- 38
2017-08-06 21:00:00 29.2 4 Norte 14 Norte 0 -- -- 35
2017-08-06 20:00:00 30.2 4 Norte 18 Norte 0 -- -- 33
2017-08-06 19:00:00 30.2 6 Noroeste 21 Norte 0 -- -- 32
2017-08-06 18:00:00 30 10 Norte 24 Norte 0 -- -- 34
2017-08-06 17:00:00 29.6 8 Este 21 Este 0 -- -- 37
2017-08-06 16:00:00 28.6 13 Este 28 Este 0 -- -- 39
2017-08-06 15:00:00 27.4 15 Nordeste 34 Nordeste 0 -- -- 42
2017-08-06 14:00:00 26.1 18 Este 36 Este 0 -- -- 45
2017-08-06 13:00:00 24.3 17 Nordeste 36 Nordeste 0 -- -- 49
2017-08-06 12:00:00 22 14 Nordeste 36 Nordeste 0 -- -- 56
2017-08-06 11:00:00 19.4 16 Nordeste 37 Nordeste 0 -- -- 63
2017-08-06 10:00:00 17.8 20 Nordeste 32 Nordeste 0 -- -- 68
2017-08-06 09:00:00 15.9 15 Nordeste 30 Nordeste 0 -- -- 74
2017-08-06 08:00:00 14.5 11 Nordeste 26 Nordeste 0 -- -- 80
2017-08-06 07:00:00 14.1 10 Nordeste 23 Este 0 -- -- 80
2017-08-06 06:00:00 14.3 8 Nordeste 21 Nordeste 0 -- -- 78
2017-08-06 05:00:00 14.9 11 Nordeste 23 Nordeste 0 -- -- 76
2017-08-06 04:00:00 15.3 10 Nordeste 22 Nordeste 0 -- -- 75
2017-08-06 03:00:00 15.8 10 Nordeste 27 Nordeste 0 -- -- 73
2017-08-06 02:00:00 17 9 Nordeste 26 Nordeste 0 -- -- 69
2017-08-06 01:00:00 18 9 Nordeste 28 Nordeste 0 -- -- 67
2017-08-06 00:00:00 20.5 16 Norte 43 Nordeste 0 -- -- 59
2017-08-05 23:00:00 26.4 14 Noroeste 33 Noroeste 0 -- -- 39
2017-08-05 22:00:00 28.4 6 Noroeste 22 Noroeste 0 -- -- 31
2017-08-05 21:00:00 31 13 Noroeste 32 Noroeste 0 -- -- 25
2017-08-05 20:00:00 32.4 17 Noroeste 31 Oeste 0 -- -- 19
2017-08-05 19:00:00 33.5 17 Noroeste 33 Oeste 0 -- -- 21
2017-08-05 18:00:00 34 21 Oeste 37 Oeste 0 -- -- 25
2017-08-05 17:00:00 34 17 Oeste 40 Oeste 0 -- -- 26
2017-08-05 16:00:00 33.6 18 Oeste 29 Oeste 0 -- -- 26
2017-08-05 15:00:00 32.3 10 Oeste 25 Oeste 0 -- -- 29
2017-08-05 14:00:00 30.9 8 Oeste 17 Noroeste 0 -- -- 32
2017-08-05 13:00:00 29 5 Noroeste 17 Norte 0 -- -- 39
2017-08-05 12:00:00 27.4 6 Norte 17 Norte 0 -- -- 46
2017-08-05 11:00:00 25.2 6 Oeste 13 Noroeste 0 -- -- 57
2017-08-05 10:00:00 22.7 6 Noroeste 11 Noroeste 0 -- -- 67
2017-08-05 09:00:00 18.7 0 Calma 5 Sudeste 0 -- -- 69
2017-08-05 08:00:00 14.6 3 Sur 9 Sur 0 -- -- 75
2017-08-05 07:00:00 14.5 4 Sur 8 Sur 0 -- -- 73
2017-08-05 06:00:00 15.6 0 Calma 5 Sudoeste 0 -- -- 67
2017-08-05 05:00:00 17.4 2 Sudoeste 10 Sur 0 -- -- 63
2017-08-05 04:00:00 18.9 3 Sur 15 Oeste 0 -- -- 59
2017-08-05 03:00:00 18.3 2 Oeste 7 Sur 0 -- -- 54
2017-08-05 02:00:00 19.8 4 Sudoeste 9 Sur 0 -- -- 47
2017-08-05 01:00:00 21.6 5 Sur 13 Oeste 0 -- -- 41
2017-08-05 00:00:00 23.1 6 Oeste 11 Oeste 0 -- -- 38
2017-08-04 23:00:00 26.8 5 Oeste 10 Noroeste 0 -- -- 30
2017-08-04 22:00:00 30.1 6 Noroeste 25 Oeste 0 -- -- 28
2017-08-04 21:00:00 32.6 15 Noroeste 29 Noroeste 0 -- -- 25
2017-08-04 20:00:00 33.9 18 Noroeste 32 Oeste 0 -- -- 24
2017-08-04 19:00:00 34.7 20 Oeste 32 Oeste 0 -- -- 24
2017-08-04 18:00:00 35.4 18 Oeste 26 Oeste 0 -- -- 25
2017-08-04 17:00:00 34.4 5 Norte 25 Oeste 0 -- -- 30
2017-08-04 16:00:00 33.6 11 Noroeste 22 Oeste 0 -- -- 31
2017-08-04 15:00:00 32.3 10 Noroeste 24 Oeste 0 -- -- 34
2017-08-04 14:00:00 30.6 5 Nordeste 15 Noroeste 0 -- -- 40
2017-08-04 13:00:00 29.2 7 Nordeste 13 Nordeste 0 -- -- 43
2017-08-04 12:00:00 27.1 7 Noroeste 12 Noroeste 0 -- -- 49
2017-08-04 11:00:00 24.7 5 Norte 10 Noroeste 0 -- -- 56
2017-08-04 10:00:00 22.4 3 Norte 9 Sudoeste 0 -- -- 65
2017-08-04 09:00:00 19.8 5 Sur 10 Sur 0 -- -- 74
2017-08-04 08:00:00 16.3 4 Sur 6 Sur 0 -- -- 82
2017-08-04 07:00:00 16.9 3 Sur 5 Sudoeste 0 -- -- 78
2017-08-04 06:00:00 17.6 6 Sudoeste 13 Sur 0 -- -- 77
2017-08-04 05:00:00 17.6 5 Sur 9 Sudoeste 0 -- -- 75
2017-08-04 04:00:00 18.4 7 Oeste 11 Sudoeste 0 -- -- 72
2017-08-04 03:00:00 19.8 7 Sudoeste 12 Oeste 0 -- -- 67
2017-08-04 02:00:00 21.3 6 Sur 14 Oeste 0 -- -- 61
2017-08-04 01:00:00 23 8 Oeste 18 Oeste 0 -- -- 56
2017-08-04 00:00:00 24.2 10 Oeste 15 Oeste 0 -- -- 51
2017-08-03 23:00:00 25.4 5 Oeste 13 Oeste 0 -- -- 46
2017-08-03 22:00:00 27.6 8 Noroeste 26 Oeste 0 -- -- 41
2017-08-03 21:00:00 29.9 14 Noroeste 29 Noroeste 0 -- -- 37
2017-08-03 20:00:00 30.9 14 Oeste 29 Oeste 0 -- -- 35
2017-08-03 19:00:00 31.5 16 Oeste 35 Oeste 0 -- -- 34
2017-08-03 18:00:00 31.8 19 Oeste 34 Oeste 0 -- -- 33
2017-08-03 17:00:00 31.5 18 Oeste 36 Oeste 0 -- -- 35
2017-08-03 16:00:00 31.1 15 Oeste 41 Oeste 0 -- -- 36
2017-08-03 15:00:00 30.1 11 Oeste 31 Oeste 0 -- -- 35
2017-08-03 14:00:00 28.9 12 Oeste 24 Oeste 0 -- -- 31
2017-08-03 13:00:00 27.4 10 Oeste 22 Sudoeste 0 -- -- 32
2017-08-03 12:00:00 25.3 9 Oeste 19 Sudoeste 0 -- -- 39
2017-08-03 11:00:00 23.1 10 Oeste 17 Oeste 0 -- -- 47
2017-08-03 10:00:00 20.8 9 Oeste 14 Oeste 0 -- -- 52
2017-08-03 09:00:00 17.3 5 Sudoeste 10 Oeste 0 -- -- 61
2017-08-03 08:00:00 13.2 4 Sur 8 Sur 0 -- -- 64
2017-08-03 07:00:00 13.7 3 Sudeste 6 Sudoeste 0 -- -- 61
2017-08-03 06:00:00 14.7 6 Sudoeste 9 Sudoeste 0 -- -- 59
2017-08-03 05:00:00 16.1 5 Sudoeste 12 Oeste 0 -- -- 51
2017-08-03 04:00:00 17 7 Oeste 12 Sudoeste 0 -- -- 46
2017-08-03 03:00:00 16.4 4 Sur 9 Oeste 0 -- -- 45
2017-08-03 02:00:00 17 7 Sudoeste 9 Sur 0 -- -- 43
2017-08-03 01:00:00 17.9 4 Sur 8 Sudeste 0 -- -- 37
2017-08-03 00:00:00 19.1 4 Sur 9 Sur 0 -- -- 33
2017-08-02 23:00:00 21.9 3 Sudoeste 11 Oeste 0 -- -- 28
2017-08-02 22:00:00 26.8 5 Noroeste 21 Oeste 0 -- -- 22
2017-08-02 21:00:00 30 13 Oeste 22 Oeste 0 -- -- 19
2017-08-02 20:00:00 31.3 10 Oeste 24 Oeste 0 -- -- 17
2017-08-02 19:00:00 31.9 12 Oeste 27 Oeste 0 -- -- 16
2017-08-02 18:00:00 32 13 Oeste 27 Oeste 0 -- -- 16
2017-08-02 17:00:00 32 11 Oeste 30 Oeste 0 -- -- 17
2017-08-02 16:00:00 31.4 14 Oeste 27 Oeste 0 -- -- 18
2017-08-02 15:00:00 30.4 13 Sudoeste 28 Oeste 0 -- -- 21
2017-08-02 14:00:00 29.4 12 Sudoeste 19 Sudoeste 0 -- -- 24
2017-08-02 13:00:00 27.8 4 Sudeste 13 Norte 0 -- -- 28
2017-08-02 12:00:00 25.7 6 Nordeste 15 Nordeste 0 -- -- 32
2017-08-02 11:00:00 22.1 2 Noroeste 9 Oeste 0 -- -- 40
2017-08-02 10:00:00 18.7 3 Norte 6 Norte 0 -- -- 51
2017-08-02 09:00:00 14.2 0 Calma 4 Sur 0 -- -- 62
2017-08-02 08:00:00 10 2 Sudoeste 5 Sudeste 0 -- -- 69
2017-08-02 07:00:00 9.9 3 Sur 5 Sudeste 0 -- -- 67
2017-08-02 06:00:00 10.4 3 Este 8 Sur 0 -- -- 63
2017-08-02 05:00:00 11.5 4 Sur 7 Sur 0 -- -- 57
2017-08-02 04:00:00 12.8 0 Calma 6 Sur 0 -- -- 54
2017-08-02 03:00:00 13.7 6 Sur 9 Sur 0 -- -- 49
2017-08-02 02:00:00 15.6 5 Sur 8 Sur 0 -- -- 44
2017-08-02 01:00:00 15.4 5 Sur 6 Sur 0 -- -- 44
2017-08-02 00:00:00 16.9 5 Sur 8 Sur 0 -- -- 39
2017-08-01 23:00:00 20.4 2 Sur 10 Oeste 0 -- -- 33
2017-08-01 22:00:00 24 6 Noroeste 15 Noroeste 0 -- -- 26
2017-08-01 21:00:00 26.1 13 Noroeste 23 Noroeste 0 -- -- 24
2017-08-01 20:00:00 27.4 14 Oeste 27 Oeste 0 -- -- 24
2017-08-01 19:00:00 28.4 12 Oeste 31 Oeste 0 -- -- 24
2017-08-01 18:00:00 28.5 10 Oeste 24 Noroeste 0 -- -- 25
2017-08-01 17:00:00 28.1 13 Oeste 32 Oeste 0 -- -- 23
2017-08-01 16:00:00 27.9 12 Oeste 30 Oeste 0 -- -- 24
2017-08-01 15:00:00 26.4 15 Oeste 27 Oeste 0 -- -- 31
2017-08-01 14:00:00 24.8 9 Oeste 23 Oeste 0 -- -- 38
2017-08-01 13:00:00 23.1 9 Sudoeste 16 Sudoeste 0 -- -- 44
2017-08-01 12:00:00 20.7 8 Noroeste 14 Oeste 0 -- -- 53
2017-08-01 11:00:00 18.4 9 Oeste 20 Oeste 0 -- -- 60
2017-08-01 10:00:00 16.1 10 Oeste 20 Oeste 0 -- -- 66
2017-08-01 09:00:00 13.9 12 Oeste 18 Oeste 0 -- -- 71
2017-08-01 08:00:00 12.4 5 Sudoeste 9 Sudoeste 0 -- -- 75
2017-08-01 07:00:00 12.7 5 Sudoeste 9 Sudoeste 0 -- -- 73
2017-08-01 06:00:00 13.1 8 Sudoeste 12 Oeste 0 -- -- 74
2017-08-01 05:00:00 13.1 3 Sudoeste 6 Sur 0 -- -- 69
2017-08-01 04:00:00 14.5 4 Sur 8 Sudoeste 0 -- -- 61
2017-08-01 03:00:00 16.5 5 Oeste 7 Oeste 0 -- -- 53
2017-08-01 02:00:00 17.1 0 Calma 8 Norte 0 -- -- 54
2017-08-01 01:00:00 17.6 3 Sudoeste 8 Sur 0 -- -- 49
2017-08-01 00:00:00 18.2 4 Sur 12 Noroeste 0 -- -- 47
2017-07-31 23:00:00 19.5 5 Noroeste 18 Oeste 0 -- -- 42
2017-07-31 22:00:00 19.4 7 Oeste 17 Sudoeste 0 -- -- 48
2017-07-31 21:00:00 19.6 12 Sudoeste 21 Sudoeste 0 -- -- 45
2017-07-31 20:00:00 20.3 13 Oeste 30 Oeste 0 -- -- 42
2017-07-31 19:00:00 21.6 18 Oeste 30 Noroeste 0 -- -- 35
2017-07-31 18:00:00 23.9 18 Noroeste 33 Oeste 0 -- -- 34
2017-07-31 17:00:00 27.1 10 Oeste 26 Oeste 0 -- -- 29
2017-07-31 16:00:00 26.7 15 Oeste 35 Oeste 0 -- -- 31
2017-07-31 15:00:00 26.8 14 Oeste 33 Oeste 0 -- -- 29
2017-07-31 14:00:00 25 14 Oeste 27 Oeste 0 -- -- 34
2017-07-31 13:00:00 23.6 10 Oeste 19 Sudoeste 0 -- -- 40
2017-07-31 12:00:00 21.4 11 Oeste 18 Oeste 0 -- -- 50
2017-07-31 11:00:00 18.8 8 Oeste 16 Oeste 0 -- -- 58
2017-07-31 10:00:00 16 7 Noroeste 15 Oeste 0 -- -- 67
2017-07-31 09:00:00 14.7 10 Oeste 19 Oeste 0 -- -- 73
2017-07-31 08:00:00 11.9 8 Oeste 14 Oeste 0 -- -- 85
2017-07-31 07:00:00 11.5 4 Sudoeste 6 Sur 0 -- -- 79
2017-07-31 06:00:00 12.6 5 Sudoeste 9 Sudoeste 0 -- -- 76
2017-07-31 05:00:00 14.1 3 Oeste 8 Sudoeste 0 -- -- 71
2017-07-31 04:00:00 15.3 5 Sudoeste 8 Sudoeste 0 -- -- 68
2017-07-31 03:00:00 16.1 3 Sur 8 Sudoeste 0 -- -- 63
2017-07-31 02:00:00 17.7 4 Sur 11 Oeste 0 -- -- 54
2017-07-31 01:00:00 19.1 4 Sudoeste 12 Oeste 0 -- -- 46
2017-07-31 00:00:00 21.3 6 Oeste 14 Noroeste 0 -- -- 42
2017-07-30 23:00:00 23.6 7 Noroeste 19 Noroeste 0 -- -- 38
2017-07-30 22:00:00 26.2 8 Noroeste 20 Oeste 0 -- -- 34
2017-07-30 21:00:00 29.2 12 Oeste 30 Oeste 0 -- -- 26
2017-07-30 20:00:00 30.5 16 Oeste 32 Oeste 0 -- -- 21
2017-07-30 19:00:00 31.2 20 Oeste 33 Oeste 0 -- -- 23
2017-07-30 18:00:00 31.3 19 Oeste 43 Oeste 0 -- -- 23
2017-07-30 17:00:00 31.6 24 Oeste 45 Oeste 0 -- -- 22
2017-07-30 16:00:00 31.1 22 Oeste 40 Oeste 0 -- -- 24
2017-07-30 15:00:00 29.9 18 Sudoeste 34 Sudoeste 0 -- -- 27
2017-07-30 14:00:00 28.8 21 Oeste 34 Oeste 0 -- -- 28
2017-07-30 13:00:00 26.2 10 Oeste 24 Oeste 0 -- -- 38
2017-07-30 12:00:00 23.9 10 Oeste 18 Oeste 0 -- -- 45
2017-07-30 11:00:00 21.4 8 Noroeste 14 Oeste 0 -- -- 54
2017-07-30 10:00:00 19.3 5 Oeste 12 Oeste 0 -- -- 62
2017-07-30 09:00:00 16.7 6 Sudoeste 11 Sudoeste 0 -- -- 75
2017-07-30 08:00:00 14.4 5 Sur 7 Sur 0 -- -- 80
2017-07-30 07:00:00 15.2 5 Sudoeste 10 Sudoeste 0 -- -- 77
2017-07-30 06:00:00 15.9 6 Oeste 8 Oeste 0 -- -- 72
2017-07-30 05:00:00 17.2 4 Sudoeste 13 Oeste 0 -- -- 66
2017-07-30 04:00:00 18.1 8 Sudoeste 13 Oeste 0 -- -- 62
2017-07-30 03:00:00 19.5 8 Sudoeste 14 Oeste 0 -- -- 56
2017-07-30 02:00:00 21.1 7 Sur 17 Oeste 0 -- -- 48
2017-07-30 01:00:00 22.9 7 Sudoeste 15 Oeste 0 -- -- 46
2017-07-30 00:00:00 23.7 8 Oeste 13 Noroeste 0 -- -- 44
2017-07-29 23:00:00 26.2 8 Oeste 21 Noroeste 0 -- -- 37
2017-07-29 22:00:00 28.1 7 Oeste 29 Oeste 0 -- -- 33
2017-07-29 21:00:00 30.6 18 Oeste 30 Sudoeste 0 -- -- 28
2017-07-29 20:00:00 32.1 19 Sudoeste 35 Oeste 0 -- -- 25
2017-07-29 19:00:00 32.7 17 Oeste 33 Oeste 0 -- -- 24
2017-07-29 18:00:00 32.7 21 Oeste 37 Oeste 0 -- -- 22
2017-07-29 17:00:00 32.3 15 Oeste 33 Oeste 0 -- -- 24
2017-07-29 16:00:00 32.1 18 Oeste 30 Oeste 0 -- -- 22
2017-07-29 15:00:00 30.7 15 Oeste 31 Sudoeste 0 -- -- 27
2017-07-29 14:00:00 29 14 Oeste 29 Sudoeste 0 -- -- 33
2017-07-29 13:00:00 27 12 Oeste 28 Sudoeste 0 -- -- 39
2017-07-29 12:00:00 24.8 14 Oeste 26 Oeste 0 -- -- 50
2017-07-29 11:00:00 22.6 14 Oeste 23 Sudoeste 0 -- -- 60
2017-07-29 10:00:00 20.8 11 Oeste 21 Oeste 0 -- -- 67
2017-07-29 09:00:00 18.7 10 Oeste 17 Oeste 0 -- -- 76
2017-07-29 08:00:00 14.7 4 Sur 8 Sur 0 -- -- 80
2017-07-29 07:00:00 15 3 Sudoeste 6 Sur 0 -- -- 75
2017-07-29 06:00:00 16.1 5 Sur 9 Sur 0 -- -- 71
2017-07-29 05:00:00 17.3 5 Sudoeste 10 Sudoeste 0 -- -- 69
2017-07-29 04:00:00 18.3 6 Sudoeste 10 Oeste 0 -- -- 61
2017-07-29 03:00:00 19 7 Sudoeste 10 Oeste 0 -- -- 52
2017-07-29 02:00:00 20.3 5 Sudoeste 10 Sudoeste 0 -- -- 40
2017-07-29 01:00:00 21.5 5 Sudoeste 13 Oeste 0 -- -- 30
2017-07-29 00:00:00 22.9 8 Sudoeste 15 Oeste 0 -- -- 27
2017-07-28 23:00:00 25 8 Oeste 14 Oeste 0 -- -- 26
2017-07-28 22:00:00 28.3 8 Noroeste 20 Noroeste 0 -- -- 24
2017-07-28 21:00:00 30.9 13 Noroeste 25 Noroeste 0 -- -- 23
2017-07-28 20:00:00 31.9 14 Noroeste 31 Noroeste 0 -- -- 27
2017-07-28 19:00:00 32.4 18 Oeste 31 Oeste 0 -- -- 29
2017-07-28 18:00:00 33 20 Oeste 32 Oeste 0 -- -- 29
2017-07-28 17:00:00 32.9 19 Oeste 31 Oeste 0 -- -- 31
2017-07-28 16:00:00 32.4 9 Oeste 30 Sudoeste 0 -- -- 31
2017-07-28 15:00:00 31.2 13 Oeste 31 Oeste 0 -- -- 32
2017-07-28 14:00:00 29.8 10 Oeste 20 Sudoeste 0 -- -- 32
2017-07-28 13:00:00 28.3 9 Noroeste 17 Oeste 0 -- -- 31
2017-07-28 12:00:00 26.2 9 Oeste 15 Sudoeste 0 -- -- 32
2017-07-28 11:00:00 24.1 6 Noroeste 13 Noroeste 0 -- -- 32
2017-07-28 10:00:00 21.7 7 Noroeste 14 Noroeste 0 -- -- 49
2017-07-28 09:00:00 18.4 7 Oeste 12 Oeste 0 -- -- 78
2017-07-28 08:00:00 13.6 2 Sur 6 Sur 0 -- -- 79
2017-07-28 07:00:00 14.1 0 Calma 6 Sur 0 -- -- 76
2017-07-28 06:00:00 15 6 Sur 10 Sudoeste 0 -- -- 74
2017-07-28 05:00:00 16.3 6 Sudoeste 8 Sur 0 -- -- 66
2017-07-28 04:00:00 17.4 5 Sur 11 Sudoeste 0 -- -- 64
2017-07-28 03:00:00 17.4 6 Sur 9 Sudoeste 0 -- -- 57
2017-07-28 02:00:00 19.3 4 Sur 10 Sudoeste 0 -- -- 51
2017-07-28 01:00:00 19.9 3 Sudoeste 7 Sur 0 -- -- 42
2017-07-28 00:00:00 21.9 6 Sur 10 Noroeste 0 -- -- 33
2017-07-27 23:00:00 25.9 8 Oeste 16 Oeste 0 -- -- 26
2017-07-27 22:00:00 28.5 8 Noroeste 20 Oeste 0 -- -- 21
2017-07-27 21:00:00 31.4 13 Noroeste 28 Oeste 0 -- -- 18
2017-07-27 20:00:00 32.8 15 Oeste 28 Oeste 0 -- -- 18
2017-07-27 19:00:00 33.7 16 Oeste 32 Oeste 0 -- -- 15
2017-07-27 18:00:00 33.7 14 Oeste 37 Oeste 0 -- -- 13
2017-07-27 17:00:00 33.6 19 Oeste 33 Oeste 0 -- -- 15
2017-07-27 16:00:00 33.1 18 Oeste 32 Sudoeste 0 -- -- 19
2017-07-27 15:00:00 31.9 19 Oeste 35 Oeste 0 -- -- 24
2017-07-27 14:00:00 30.6 15 Sudoeste 26 Oeste 0 -- -- 27
2017-07-27 13:00:00 29 9 Oeste 20 Oeste 0 -- -- 29
2017-07-27 12:00:00 27.4 11 Oeste 27 Sudoeste 0 -- -- 32
2017-07-27 11:00:00 25.4 9 Oeste 14 Oeste 0 -- -- 35
2017-07-27 10:00:00 22.7 8 Oeste 13 Oeste 0 -- -- 42
2017-07-27 09:00:00 17.6 3 Sudoeste 6 Sudoeste 0 -- -- 57
2017-07-27 08:00:00 13.5 2 Sur 6 Sur 0 -- -- 63
2017-07-27 07:00:00 13.1 4 Sur 6 Sur 0 -- -- 62
2017-07-27 06:00:00 13.5 7 Sur 8 Sur 0 -- -- 59
2017-07-27 05:00:00 14.4 4 Sur 6 Sur 0 -- -- 55
2017-07-27 04:00:00 15.1 3 Sur 9 Sur 0 -- -- 51
2017-07-27 03:00:00 15.4 5 Sur 8 Sur 0 -- -- 50
2017-07-27 02:00:00 16.9 4 Sur 9 Sur 0 -- -- 45
2017-07-27 01:00:00 17.7 5 Sur 8 Sur 0 -- -- 42
2017-07-27 00:00:00 19.5 5 Sur 7 Sur 0 -- -- 38
2017-07-26 23:00:00 22.8 3 Sur 8 Noroeste 0 -- -- 34
2017-07-26 22:00:00 27.8 4 Noroeste 15 Noroeste 0 -- -- 26
2017-07-26 21:00:00 30.9 7 Noroeste 21 Noroeste 0 -- -- 23
2017-07-26 20:00:00 31.7 6 Noroeste 21 Noroeste 0 -- -- 23
2017-07-26 19:00:00 32.1 6 Noroeste 21 Oeste 0 -- -- 23
2017-07-26 18:00:00 31.9 5 Norte 21 Noroeste 0 -- -- 24
2017-07-26 17:00:00 31.5 7 Este 21 Sur 0 -- -- 26
2017-07-26 16:00:00 30 5 Este 21 Noroeste 0 -- -- 28
2017-07-26 15:00:00 29.1 9 Noroeste 27 Norte 0 -- -- 31
2017-07-26 14:00:00 28.2 8 Noroeste 17 Sudeste 0 -- -- 32
2017-07-26 13:00:00 26.9 6 Nordeste 18 Este 0 -- -- 35
2017-07-26 12:00:00 25.4 8 Nordeste 22 Nordeste 0 -- -- 36
2017-07-26 11:00:00 23.8 16 Este 23 Este 0 -- -- 38
2017-07-26 10:00:00 21 16 Este 26 Este 0 -- -- 42
2017-07-26 09:00:00 17.7 7 Nordeste 18 Nordeste 0 -- -- 52
2017-07-26 08:00:00 14.6 3 Nordeste 11 Nordeste 0 -- -- 61
2017-07-26 07:00:00 14.2 3 Nordeste 11 Nordeste 0 -- -- 60
2017-07-26 06:00:00 15.3 10 Este 22 Este 0 -- -- 57
2017-07-26 05:00:00 15.9 14 Este 25 Este 0 -- -- 55
2017-07-26 04:00:00 16.9 15 Este 25 Este 0 -- -- 52
2017-07-26 03:00:00 17.4 16 Este 27 Este 0 -- -- 51
2017-07-26 02:00:00 18.4 19 Este 27 Este 0 -- -- 47
2017-07-26 01:00:00 19.5 16 Este 23 Este 0 -- -- 44
2017-07-26 00:00:00 20.5 14 Este 19 Este 0 -- -- 43
2017-07-25 23:00:00 21.5 4 Nordeste 9 Nordeste 0 -- -- 38
2017-07-25 22:00:00 24.3 6 Nordeste 18 Nordeste 0 -- -- 33
2017-07-25 21:00:00 26.6 9 Nordeste 23 Nordeste 0 -- -- 29
2017-07-25 20:00:00 27.4 9 Nordeste 23 Norte 0 -- -- 29
2017-07-25 19:00:00 27.3 10 Norte 25 Norte 0 -- -- 27
2017-07-25 18:00:00 27.3 11 Norte 24 Norte 0 -- -- 27
2017-07-25 17:00:00 27 10 Nordeste 28 Este 0 -- -- 27
2017-07-25 16:00:00 26.1 10 Norte 24 Nordeste 0 -- -- 30
2017-07-25 15:00:00 25.2 13 Norte 31 Nordeste 0 -- -- 31
2017-07-25 14:00:00 24.5 13 Nordeste 31 Nordeste 0 -- -- 32
2017-07-25 13:00:00 23.4 14 Nordeste 32 Este 0 -- -- 37
2017-07-25 12:00:00 21 14 Nordeste 30 Nordeste 0 -- -- 48
2017-07-25 11:00:00 19.3 17 Este 27 Nordeste 0 -- -- 53
2017-07-25 10:00:00 17.4 18 Nordeste 31 Nordeste 0 -- -- 60
2017-07-25 09:00:00 15.7 16 Nordeste 29 Nordeste 0 -- -- 66
2017-07-25 08:00:00 13.8 11 Nordeste 21 Este 0 -- -- 74
2017-07-25 07:00:00 13.2 15 Este 23 Este 0 -- -- 76
2017-07-25 06:00:00 14.1 17 Nordeste 28 Nordeste 0 -- -- 73
2017-07-25 05:00:00 14.8 13 Nordeste 24 Nordeste 0 -- -- 71
2017-07-25 04:00:00 16 13 Nordeste 27 Nordeste 0 -- -- 65
2017-07-25 03:00:00 17.3 14 Nordeste 28 Nordeste 0 -- -- 61
2017-07-25 02:00:00 18.8 12 Nordeste 26 Este 0 -- -- 57
2017-07-25 01:00:00 20.6 14 Nordeste 23 Este 0 -- -- 50
2017-07-25 00:00:00 21.4 9 Nordeste 22 Nordeste 0 -- -- 43
2017-07-24 23:00:00 21.8 0 Calma 8 Este 0 -- -- 38
2017-07-24 22:00:00 25 6 Este 15 Norte 0 -- -- 30
2017-07-24 21:00:00 28.2 9 Nordeste 23 Este 0 -- -- 28
2017-07-24 20:00:00 29 10 Este 24 Nordeste 0 -- -- 27
2017-07-24 19:00:00 29.3 13 Nordeste 27 Nordeste 0 -- -- 27
2017-07-24 18:00:00 28.9 7 Norte 23 Norte 0 -- -- 28
2017-07-24 17:00:00 28.6 8 Norte 26 Noroeste 0 -- -- 28
2017-07-24 16:00:00 27.4 10 Noroeste 25 Noroeste 0 -- -- 29
2017-07-24 15:00:00 26.6 10 Norte 22 Noroeste 0 -- -- 35
2017-07-24 14:00:00 25.7 7 Norte 20 Nordeste 0 -- -- 40
2017-07-24 13:00:00 24.3 11 Nordeste 26 Nordeste 0 -- -- 46
2017-07-24 12:00:00 22.9 12 Nordeste 23 Norte 0 -- -- 50
2017-07-24 11:00:00 21.8 15 Nordeste 26 Este 0 -- -- 54
2017-07-24 10:00:00 19.9 11 Nordeste 25 Nordeste 0 -- -- 60
2017-07-24 09:00:00 16.3 3 Noroeste 5 Noroeste 0 -- -- 76
2017-07-24 08:00:00 12.1 2 Sur 6 Sudeste 0 -- -- 84
2017-07-24 07:00:00 12 0 Calma 10 Sur 0 -- -- 81
2017-07-24 06:00:00 12.9 4 Sur 8 Sur 0 -- -- 79
2017-07-24 05:00:00 14.2 4 Sur 6 Sur 0 -- -- 74
2017-07-24 04:00:00 15.8 5 Sur 8 Sur 0 -- -- 70
2017-07-24 03:00:00 17.9 5 Oeste 9 Oeste 0 -- -- 63
2017-07-24 02:00:00 19.9 6 Noroeste 13 Oeste 0 -- -- 57
2017-07-24 01:00:00 21.4 9 Noroeste 24 Noroeste 0 -- -- 52
2017-07-24 00:00:00 22.7 14 Noroeste 26 Noroeste 0 -- -- 50
2017-07-23 23:00:00 23.8 12 Noroeste 25 Noroeste 0 -- -- 43
2017-07-23 22:00:00 25.8 10 Noroeste 22 Oeste 0 -- -- 39
2017-07-23 21:00:00 28.3 12 Oeste 31 Oeste 0 -- -- 25
2017-07-23 20:00:00 29.4 16 Noroeste 33 Noroeste 0 -- -- 24
2017-07-23 19:00:00 30.1 10 Noroeste 27 Oeste 0 -- -- 25
2017-07-23 18:00:00 30.1 15 Oeste 29 Oeste 0 -- -- 24
2017-07-23 17:00:00 29.6 10 Norte 22 Noroeste 0 -- -- 26
2017-07-23 16:00:00 29 8 Norte 24 Oeste 0 -- -- 28
2017-07-23 15:00:00 27.7 6 Noroeste 19 Norte 0 -- -- 33
2017-07-23 14:00:00 26.8 10 Oeste 19 Noroeste 0 -- -- 35
2017-07-23 13:00:00 24.6 7 Norte 19 Norte 0 -- -- 40
2017-07-23 12:00:00 22.9 8 Norte 18 Este 0 -- -- 50
2017-07-23 11:00:00 21.1 7 Norte 16 Noroeste 0 -- -- 54
2017-07-23 10:00:00 18.3 4 Sur 10 Norte 0 -- -- 59
2017-07-23 09:00:00 14.1 3 Oeste 6 Noroeste 0 -- -- 70
2017-07-23 08:00:00 10.1 0 Calma 6 Sur 0 -- -- 81
2017-07-23 07:00:00 9.8 2 Sur 7 Sur 0 -- -- 79
2017-07-23 06:00:00 10.5 4 Sur 10 Sur 0 -- -- 77
2017-07-23 05:00:00 11.1 6 Sur 8 Sudoeste 0 -- -- 75
2017-07-23 04:00:00 12.4 3 Sur 7 Sur 0 -- -- 70
2017-07-23 03:00:00 13.2 7 Sur 10 Sur 0 -- -- 68
2017-07-23 02:00:00 14.4 3 Sudoeste 10 Sur 0 -- -- 64
2017-07-23 01:00:00 15.9 4 Sur 8 Sur 0 -- -- 59
2017-07-23 00:00:00 18.2 0 Calma 6 Oeste 0 -- -- 54
2017-07-22 23:00:00 21.6 4 Noroeste 18 Noroeste 0 -- -- 46
2017-07-22 22:00:00 23.4 12 Noroeste 26 Oeste 0 -- -- 43
2017-07-22 21:00:00 26.5 10 Noroeste 22 Noroeste 0 -- -- 33
2017-07-22 20:00:00 27.2 12 Noroeste 27 Sudoeste 0 -- -- 31
2017-07-22 19:00:00 27.7 14 Oeste 32 Sudoeste 0 -- -- 29
2017-07-22 18:00:00 27.8 13 Oeste 28 Oeste 0 -- -- 28
2017-07-22 17:00:00 27.5 18 Oeste 33 Sudoeste 0 -- -- 30
2017-07-22 16:00:00 26.9 12 Oeste 33 Oeste 0 -- -- 31
2017-07-22 15:00:00 25.9 16 Oeste 28 Oeste 0 -- -- 27
2017-07-22 14:00:00 24.5 12 Oeste 24 Oeste 0 -- -- 36
2017-07-22 13:00:00 22.8 11 Oeste 22 Oeste 0 -- -- 40
2017-07-22 12:00:00 20.6 12 Oeste 21 Oeste 0 -- -- 45
2017-07-22 11:00:00 18.3 9 Oeste 23 Oeste 0 -- -- 55
2017-07-22 10:00:00 15.5 10 Oeste 22 Oeste 0 -- -- 66
2017-07-22 09:00:00 14.2 11 Oeste 16 Oeste 0 -- -- 74
2017-07-22 08:00:00 10.1 4 Sur 8 Sudoeste 0 -- -- 86
2017-07-22 07:00:00 10.3 5 Sur 6 Sur 0 -- -- 82
2017-07-22 06:00:00 10.4 4 Sur 6 Sur 0 -- -- 77
2017-07-22 05:00:00 11.3 4 Sur 8 Sur 0 -- -- 72
2017-07-22 04:00:00 12.5 4 Sur 9 Sudoeste 0 -- -- 65
2017-07-22 03:00:00 14.6 3 Sudeste 13 Oeste 0 -- -- 57
2017-07-22 02:00:00 16.3 6 Oeste 10 Oeste 0 -- -- 51
2017-07-22 01:00:00 17.4 4 Oeste 14 Oeste 0 -- -- 45
2017-07-22 00:00:00 18.8 5 Oeste 20 Noroeste 0 -- -- 37